Time;durP1;ratioP1;P1;durP2;ratioP2;P2;SDS_P1;SDS_P2;PMS_P1;PMS_P2;Temp;Humidity;BMP_temperature;BMP_pressure;BME280_temperature;BME280_humidity;BME280_pressure;Samples;Min_cycle;Max_cycle;Signal;HPM_P1;HPM_P2
2022/04/25 00:01:48;;;;;;;5.15;4.65;;;20.90;47.70;;;;;;1820882;78;21118;-73
2022/04/25 00:04:16;;;;;;;5.50;4.85;;;20.90;47.70;;;;;;1832713;78;21544;-73
2022/04/25 00:06:43;;;;;;;5.87;4.65;;;20.90;47.70;;;;;;1832498;78;21146;-72
2022/04/25 00:09:10;;;;;;;4.97;4.58;;;20.90;47.70;;;;;;1833225;78;21589;-73
2022/04/25 00:11:38;;;;;;;5.50;4.72;;;20.90;47.70;;;;;;1833316;78;21123;-73
2022/04/25 00:14:06;;;;;;;5.95;5.33;;;20.90;47.70;;;;;;1833623;78;21094;-72
2022/04/25 00:16:34;;;;;;;7.17;5.47;;;20.90;47.70;;;;;;1833306;78;21189;-72
2022/04/25 00:19:01;;;;;;;5.33;4.83;;;20.90;47.60;;;;;;1833010;78;21088;-73
2022/04/25 00:21:28;;;;;;;4.95;4.45;;;20.90;47.60;;;;;;1833058;78;21591;-72
2022/04/25 00:23:57;;;;;;;8.43;4.83;;;20.90;47.60;;;;;;1833522;78;21063;-73
2022/04/25 00:26:24;;;;;;;5.30;4.80;;;20.90;47.60;;;;;;1833489;78;21138;-73
2022/04/25 00:28:51;;;;;;;5.30;4.80;;;20.80;47.50;;;;;;1833168;78;21585;-72
2022/04/25 00:31:19;;;;;;;5.35;4.67;;;20.80;47.50;;;;;;1833291;78;21191;-73
2022/04/25 00:33:46;;;;;;;9.80;5.67;;;20.80;47.50;;;;;;1834585;78;21565;-73
2022/04/25 00:36:13;;;;;;;4.92;4.45;;;20.80;47.50;;;;;;1834640;78;21167;-73
2022/04/25 00:38:40;;;;;;;6.87;5.15;;;20.80;47.40;;;;;;1841464;77;21152;-73
2022/04/25 00:41:08;;;;;;;6.05;5.45;;;20.80;47.40;;;;;;1846441;77;21174;-73
2022/04/25 00:43:35;;;;;;;5.22;4.70;;;20.80;47.40;;;;;;1846595;77;21120;-72
2022/04/25 00:46:02;;;;;;;5.25;4.75;;;20.80;47.40;;;;;;1846938;77;21184;-72
2022/04/25 00:48:30;;;;;;;6.50;5.22;;;20.80;47.40;;;;;;1828913;77;21114;-72
2022/04/25 00:50:57;;;;;;;5.55;4.92;;;20.80;47.40;;;;;;1834739;75;21417;-72
2022/04/25 00:53:24;;;;;;;5.78;5.12;;;20.80;47.40;;;;;;1842623;78;21100;-73
2022/04/25 00:55:52;;;;;;;7.22;5.35;;;20.80;47.40;;;;;;1828926;78;21108;-73
2022/04/25 00:58:19;;;;;;;5.75;5.15;;;20.80;47.40;;;;;;1843598;78;21163;-73
2022/04/25 01:00:46;;;;;;;5.45;4.80;;;20.80;47.40;;;;;;1830036;78;21575;-73
2022/04/25 01:03:14;;;;;;;4.92;4.45;;;20.80;47.40;;;;;;1833192;78;21158;-73
2022/04/25 01:05:41;;;;;;;5.83;5.15;;;20.80;47.40;;;;;;1833319;78;21083;-73
2022/04/25 01:08:08;;;;;;;6.42;5.15;;;20.80;47.40;;;;;;1833498;78;21221;-72
2022/04/25 01:10:36;;;;;;;6.35;5.00;;;20.80;47.40;;;;;;1833121;78;21227;-72
2022/04/25 01:13:03;;;;;;;7.12;5.87;;;20.80;47.40;;;;;;1833602;78;21128;-72
2022/04/25 01:15:31;;;;;;;5.47;4.97;;;20.80;47.40;;;;;;1834767;78;21117;-72
2022/04/25 01:17:58;;;;;;;5.40;4.90;;;20.80;47.40;;;;;;1834892;78;21121;-73
2022/04/25 01:20:25;;;;;;;6.72;5.08;;;20.80;47.40;;;;;;1834590;78;21175;-73
2022/04/25 01:27:15;;;;;;;5.25;4.75;;;20.80;47.40;;;;;;1834952;78;21097;-73
2022/04/25 01:28:12;;;;;;;5.95;5.35;;;20.80;47.40;;;;;;1834821;78;21149;-72
2022/04/25 01:30:39;;;;;;;6.08;5.50;;;20.80;47.40;;;;;;1831260;78;21187;-73
2022/04/25 01:33:07;;;;;;;5.67;5.05;;;20.80;47.40;;;;;;1805170;79;21128;-72
2022/04/25 01:35:35;;;;;;;5.33;4.78;;;20.80;47.40;;;;;;1805447;79;21823;-73
2022/04/25 01:38:02;;;;;;;5.80;5.20;;;20.70;47.30;;;;;;1805168;78;21240;-72
2022/04/25 01:40:30;;;;;;;4.87;4.45;;;20.70;47.20;;;;;;1804509;79;21204;-73
2022/04/25 01:42:57;;;;;;;5.22;4.70;;;20.70;47.30;;;;;;1804576;79;21716;-72
2022/04/25 01:45:24;;;;;;;5.45;4.95;;;20.80;47.40;;;;;;1825202;78;21174;-73
2022/04/25 01:47:52;;;;;;;5.22;4.72;;;20.70;47.30;;;;;;1824562;78;21622;-73
2022/04/25 01:50:19;;;;;;;5.28;4.78;;;20.70;47.30;;;;;;1804162;78;21145;-72
2022/04/25 01:52:46;;;;;;;5.83;5.22;;;20.70;47.30;;;;;;1804469;79;21649;-72
2022/04/25 01:55:14;;;;;;;5.28;4.78;;;20.70;47.40;;;;;;1804271;79;21215;-73
2022/04/25 01:57:41;;;;;;;5.03;4.53;;;20.70;47.30;;;;;;1804705;79;22183;-72
2022/04/25 02:00:08;;;;;;;8.18;5.33;;;20.70;47.40;;;;;;1803810;79;21216;-73
2022/04/25 02:02:36;;;;;;;6.00;4.45;;;20.70;47.30;;;;;;1830880;78;21188;-73
2022/04/25 02:05:06;;;;;;;5.37;4.87;;;20.70;47.20;;;;;;1832901;78;21225;-73
2022/04/25 02:07:33;;;;;;;5.15;4.65;;;20.70;47.30;;;;;;1833069;78;21116;-72
2022/04/25 02:10:01;;;;;;;6.45;5.28;;;20.70;47.60;;;;;;1834902;78;21081;-73
2022/04/25 02:12:28;;;;;;;5.75;5.08;;;20.70;47.40;;;;;;1835343;78;21149;-73
2022/04/25 02:14:55;;;;;;;5.28;4.78;;;20.70;47.40;;;;;;1835107;78;21050;-72
2022/04/25 02:17:23;;;;;;;5.37;4.55;;;20.70;47.30;;;;;;1834996;78;21191;-72
2022/04/25 02:19:50;;;;;;;6.95;5.25;;;20.70;47.30;;;;;;1835324;77;21084;-72
2022/04/25 02:22:19;;;;;;;6.53;5.83;;;20.70;47.30;;;;;;1835386;78;21633;-72
2022/04/25 02:24:46;;;;;;;5.00;4.37;;;20.70;47.30;;;;;;1835079;78;21105;-73
2022/04/25 02:27:14;;;;;;;5.70;5.10;;;20.70;47.30;;;;;;1813838;78;21207;-72
2022/04/25 02:29:41;;;;;;;5.72;4.75;;;20.70;47.30;;;;;;1835387;78;21186;-72
2022/04/25 02:32:13;;;;;;;5.90;5.30;;;20.70;47.20;;;;;;1834001;78;21662;-73
2022/04/25 02:34:38;;;;;;;5.33;4.83;;;20.70;47.20;;;;;;1832093;78;22187;-72
2022/04/25 02:37:06;;;;;;;5.50;5.00;;;20.70;47.20;;;;;;1833364;78;21601;-73
2022/04/25 02:39:33;;;;;;;5.72;5.10;;;20.70;47.20;;;;;;1829406;78;21132;-73
2022/04/25 02:42:01;;;;;;;5.30;4.80;;;20.70;47.20;;;;;;1840539;78;21639;-73
2022/04/25 02:44:28;;;;;;;5.12;4.62;;;20.60;47.20;;;;;;1829245;78;21108;-73
2022/04/25 02:46:55;;;;;;;5.90;4.45;;;20.70;47.20;;;;;;1829393;78;21643;-72
2022/04/25 02:49:23;;;;;;;5.15;4.67;;;20.70;47.30;;;;;;1816682;78;21127;-73
2022/04/25 02:51:50;;;;;;;6.00;4.97;;;20.60;47.20;;;;;;1818906;78;21115;-73
2022/04/25 02:54:17;;;;;;;5.10;4.58;;;20.60;47.10;;;;;;1818767;79;21247;-73
2022/04/25 02:56:45;;;;;;;4.95;4.55;;;20.70;47.40;;;;;;1818934;79;21131;-73
2022/04/25 02:59:12;;;;;;;4.40;4.00;;;20.70;47.40;;;;;;1819133;79;21116;-73
2022/04/25 03:01:40;;;;;;;5.42;4.92;;;20.70;47.30;;;;;;1835126;77;21119;-72
2022/04/25 03:04:07;;;;;;;5.90;5.30;;;20.70;47.20;;;;;;1849518;77;21145;-73
2022/04/25 03:06:35;;;;;;;5.78;5.15;;;20.60;47.20;;;;;;1849309;77;21179;-73
2022/04/25 03:09:02;;;;;;;4.97;4.50;;;20.60;47.10;;;;;;1849328;77;21537;-72
2022/04/25 03:11:30;;;;;;;5.70;4.45;;;20.60;47.20;;;;;;1848992;77;21778;-72
2022/04/25 03:13:57;;;;;;;5.42;4.92;;;20.60;47.00;;;;;;1849699;77;21129;-73
2022/04/25 03:16:25;;;;;;;6.08;5.37;;;20.60;47.60;;;;;;1849398;77;21655;-73
2022/04/25 03:18:53;;;;;;;5.75;4.92;;;20.60;47.00;;;;;;1849675;77;21570;-73
2022/04/25 03:21:20;;;;;;;5.65;5.05;;;20.60;47.00;;;;;;1849855;77;21787;-72
2022/04/25 03:23:48;;;;;;;5.55;4.90;;;20.60;47.00;;;;;;1849799;77;21144;-73
2022/04/25 03:26:17;;;;;;;6.42;5.70;;;20.60;47.00;;;;;;1849753;77;21140;-73
2022/04/25 03:28:45;;;;;;;5.65;5.05;;;20.60;47.00;;;;;;1849696;77;21077;-73
2022/04/25 03:31:12;;;;;;;5.78;4.80;;;20.60;46.90;;;;;;1838786;77;21106;-73
2022/04/25 03:33:39;;;;;;;5.62;5.08;;;20.60;47.00;;;;;;1853276;76;21122;-72
2022/04/25 03:36:07;;;;;;;5.90;5.10;;;20.60;46.90;;;;;;1880148;76;21082;-73
2022/04/25 03:38:34;;;;;;;5.35;4.85;;;20.60;46.90;;;;;;1880276;76;21102;-73
2022/04/25 03:41:01;;;;;;;5.50;4.97;;;20.60;47.00;;;;;;1870743;76;21112;-72
2022/04/25 03:43:30;;;;;;;5.05;4.55;;;20.60;47.00;;;;;;1868708;77;21099;-72
2022/04/25 03:45:57;;;;;;;5.37;4.87;;;20.60;47.00;;;;;;1869271;77;21079;-72
2022/04/25 03:48:24;;;;;;;5.78;5.17;;;20.60;46.90;;;;;;1851978;77;21116;-72
2022/04/25 03:50:52;;;;;;;5.50;4.90;;;20.60;46.90;;;;;;1838191;78;21207;-72
2022/04/25 03:53:19;;;;;;;6.08;5.05;;;20.60;46.80;;;;;;1838270;78;21183;-73
2022/04/25 03:58:31;;;;;;;5.70;5.15;;;20.50;46.80;;;;;;1838068;78;21167;-72
2022/04/25 04:00:59;;;;;;;5.45;4.85;;;20.50;46.80;;;;;;1838278;78;21207;-72
2022/04/25 04:03:26;;;;;;;6.10;5.50;;;20.60;47.00;;;;;;1838325;78;21089;-72
2022/04/25 04:05:54;;;;;;;6.05;4.80;;;20.60;46.90;;;;;;1838323;78;21487;-72
2022/04/25 04:08:21;;;;;;;5.65;5.03;;;20.60;47.00;;;;;;1838341;78;21626;-72
2022/04/25 04:10:49;;;;;;;5.15;4.65;;;20.60;47.50;;;;;;1837779;78;21120;-72
2022/04/25 04:13:16;;;;;;;5.22;4.72;;;20.50;47.00;;;;;;1837715;78;21562;-72
2022/04/25 04:15:43;;;;;;;6.53;5.80;;;20.50;46.90;;;;;;1837781;78;21155;-72
2022/04/25 04:18:10;;;;;;;5.72;5.12;;;20.50;46.90;;;;;;1837791;78;21562;-72
2022/04/25 04:20:38;;;;;;;5.60;5.00;;;20.60;46.90;;;;;;1838190;78;21191;-72
2022/04/25 04:23:06;;;;;;;5.78;5.17;;;20.50;46.90;;;;;;1838265;78;21124;-72
2022/04/25 04:25:34;;;;;;;5.05;4.55;;;20.60;46.90;;;;;;1838344;78;21191;-73
2022/04/25 04:28:02;;;;;;;7.67;5.20;;;20.50;46.90;;;;;;1823271;77;21075;-72
2022/04/25 04:30:29;;;;;;;7.00;5.22;;;20.50;46.90;;;;;;1809212;78;21129;-72
2022/04/25 04:32:56;;;;;;;6.17;5.58;;;20.50;46.70;;;;;;1835423;78;21674;-72
2022/04/25 04:38:09;;;;;;;5.40;4.90;;;20.50;46.70;;;;;;1835317;78;21452;-72
2022/04/25 04:40:36;;;;;;;5.40;4.85;;;20.50;47.00;;;;;;1832031;78;21162;-72
2022/04/25 04:43:04;;;;;;;5.30;4.80;;;20.50;47.00;;;;;;1827221;78;21099;-72
2022/04/25 04:45:31;;;;;;;7.65;5.20;;;20.50;47.10;;;;;;1827571;78;21204;-71
2022/04/25 04:47:58;;;;;;;5.30;4.80;;;20.50;46.60;;;;;;1825166;78;21569;-71
2022/04/25 04:50:27;;;;;;;13.78;5.28;;;20.60;47.10;;;;;;1825735;78;21069;-71
2022/04/25 04:52:59;;;;;;;7.25;4.58;;;20.50;47.00;;;;;;1828776;77;21086;-72
2022/04/25 04:55:26;;;;;;;5.90;5.15;;;20.60;46.60;;;;;;1828980;78;21446;-72
2022/04/25 04:57:55;;;;;;;5.85;5.17;;;20.60;47.10;;;;;;1829144;78;21109;-72
2022/04/25 05:00:23;;;;;;;8.75;4.40;;;20.50;46.90;;;;;;1828974;78;21093;-72
2022/04/25 05:02:50;;;;;;;7.95;5.40;;;20.50;47.00;;;;;;1829364;78;21137;-72
2022/04/25 05:05:18;;;;;;;8.73;4.72;;;20.50;46.90;;;;;;1829141;78;21170;-72
2022/04/25 05:07:46;;;;;;;8.70;5.45;;;20.50;46.80;;;;;;1829094;78;21129;-72
2022/04/25 05:10:13;;;;;;;5.70;4.60;;;20.50;46.80;;;;;;1829525;78;21603;-73
2022/04/25 05:12:50;;;;;;;5.50;4.90;;;20.50;46.80;;;;;;1829596;78;21121;-72
2022/04/25 05:15:19;;;;;;;7.25;4.42;;;20.50;46.80;;;;;;1829800;78;21125;-72
2022/04/25 05:17:53;;;;;;;6.90;5.45;;;20.50;46.70;;;;;;1820368;78;21173;-72
2022/04/25 05:20:16;;;;;;;5.37;4.65;;;20.50;46.80;;;;;;1798574;80;21161;-72
2022/04/25 05:22:45;;;;;;;6.60;5.05;;;20.50;46.70;;;;;;1804579;78;21533;-72
2022/04/25 05:25:14;;;;;;;5.37;4.70;;;20.50;46.70;;;;;;1799129;80;21106;-72
2022/04/25 05:27:45;;;;;;;8.23;4.72;;;20.50;46.60;;;;;;1798755;80;21123;-72
2022/04/25 05:30:14;;;;;;;4.83;4.35;;;20.50;46.70;;;;;;1799346;79;21156;-72
2022/04/25 05:32:46;;;;;;;5.40;4.87;;;20.50;46.70;;;;;;1827596;78;21571;-72
2022/04/25 05:35:18;;;;;;;7.15;4.22;;;20.50;47.10;;;;;;1829169;78;22771;-72
2022/04/25 05:37:45;;;;;;;7.67;4.75;;;20.50;46.60;;;;;;1829038;78;21082;-72
2022/04/25 05:40:13;;;;;;;5.08;4.58;;;20.50;46.60;;;;;;1829591;77;21210;-72
2022/04/25 05:42:41;;;;;;;6.95;5.00;;;20.50;46.50;;;;;;1838493;78;21519;-72
2022/04/25 05:45:10;;;;;;;5.67;4.95;;;20.50;46.50;;;;;;1837202;78;21159;-72
2022/04/25 05:47:37;;;;;;;4.95;4.42;;;20.50;46.50;;;;;;1837559;78;21128;-72
2022/04/25 05:52:51;;;;;;;4.90;4.40;;;20.50;46.50;;;;;;1838223;78;21218;-72
2022/04/25 05:55:18;;;;;;;6.00;4.28;;;20.50;46.50;;;;;;1838442;78;21116;-72
2022/04/25 05:57:46;;;;;;;5.08;4.55;;;20.50;47.00;;;;;;1838408;78;21086;-72
2022/04/25 06:00:14;;;;;;;6.12;4.10;;;20.50;46.50;;;;;;1837837;78;21112;-72
2022/04/25 06:02:42;;;;;;;4.97;4.47;;;20.50;46.50;;;;;;1808132;78;21147;-73
2022/04/25 06:05:12;;;;;;;11.00;5.28;;;20.50;46.40;;;;;;1807765;79;21140;-72
2022/04/25 06:07:43;;;;;;;7.53;5.50;;;20.50;46.50;;;;;;1808237;79;21677;-72
2022/04/25 06:10:11;;;;;;;5.05;4.62;;;20.50;46.40;;;;;;1808494;79;21555;-72
2022/04/25 06:12:42;;;;;;;4.90;4.35;;;20.50;46.40;;;;;;1808474;79;21075;-72
2022/04/25 06:15:10;;;;;;;6.90;4.70;;;20.50;46.40;;;;;;1814519;77;21145;-72
2022/04/25 06:17:37;;;;;;;6.35;4.78;;;20.50;46.40;;;;;;1829025;77;21090;-72
2022/04/25 06:20:06;;;;;;;8.10;4.80;;;20.50;46.40;;;;;;1837296;77;21144;-72
2022/04/25 06:22:33;;;;;;;5.33;4.30;;;20.50;46.40;;;;;;1832898;78;21418;-72
2022/04/25 06:25:01;;;;;;;7.25;5.20;;;20.50;46.30;;;;;;1812611;78;21143;-72
2022/04/25 06:27:28;;;;;;;4.95;4.25;;;20.50;46.30;;;;;;1817928;78;21038;-72
2022/04/25 06:29:56;;;;;;;6.10;5.47;;;20.50;46.40;;;;;;1838218;78;21112;-72
2022/04/25 06:32:24;;;;;;;9.38;4.58;;;20.50;46.30;;;;;;1812281;78;21057;-72
2022/04/25 06:34:51;;;;;;;6.17;4.75;;;20.50;46.30;;;;;;1807702;79;21143;-72
2022/04/25 06:37:18;;;;;;;5.12;4.67;;;20.50;46.30;;;;;;1810233;78;21089;-72
2022/04/25 06:39:46;;;;;;;6.25;4.15;;;20.50;46.30;;;;;;1832825;78;21534;-72
2022/04/25 06:42:13;;;;;;;6.97;5.62;;;20.50;46.30;;;;;;1838475;77;21106;-72
2022/04/25 06:44:40;;;;;;;5.65;4.75;;;20.50;46.30;;;;;;1838281;78;21404;-72
2022/04/25 06:47:08;;;;;;;6.85;4.95;;;20.50;46.80;;;;;;1838153;78;21061;-72
2022/04/25 06:49:35;;;;;;;5.80;4.45;;;20.50;46.40;;;;;;1838353;78;21442;-72
2022/04/25 06:52:03;;;;;;;5.20;4.70;;;20.50;46.30;;;;;;1838090;78;21457;-72
2022/04/25 06:54:31;;;;;;;8.15;4.62;;;20.50;46.40;;;;;;1838381;78;21592;-72
2022/04/25 06:56:58;;;;;;;13.88;5.03;;;20.50;46.30;;;;;;1838452;78;21061;-72
2022/04/25 06:59:26;;;;;;;5.15;4.60;;;20.60;46.30;;;;;;1838067;78;21701;-72
2022/04/25 07:01:53;;;;;;;5.90;4.53;;;20.50;46.40;;;;;;1818948;78;21725;-73
2022/04/25 07:04:20;;;;;;;7.30;5.00;;;20.50;46.30;;;;;;1808174;79;21226;-72
2022/04/25 07:06:48;;;;;;;7.58;5.12;;;20.50;46.30;;;;;;1808442;79;21110;-72
2022/04/25 07:09:15;;;;;;;10.95;5.17;;;20.50;46.40;;;;;;1813670;77;21161;-72
2022/04/25 07:11:43;;;;;;;9.88;4.80;;;20.60;46.30;;;;;;1828947;77;21144;-72
2022/04/25 07:14:13;;;;;;;6.85;4.97;;;20.60;46.40;;;;;;1818784;78;21093;-72
2022/04/25 07:16:40;;;;;;;6.03;4.47;;;20.60;46.40;;;;;;1838396;77;21159;-72
2022/04/25 07:19:07;;;;;;;8.45;5.62;;;20.40;46.70;;;;;;1807469;78;21188;-72
2022/04/25 07:29:51;;;;;;;5.67;4.97;;;20.30;47.20;;;;;;1831419;78;21605;-78
2022/04/25 07:32:20;;;;;;;11.20;5.25;;;20.40;46.90;;;;;;1848502;77;21138;-72
2022/04/25 07:34:47;;;;;;;12.35;5.05;;;20.40;46.80;;;;;;1835171;78;21211;-72
2022/04/25 07:37:16;;;;;;;12.65;5.90;;;20.50;46.80;;;;;;1807707;78;21507;-72
2022/04/25 07:39:45;;;;;;;8.35;5.30;;;20.50;46.70;;;;;;1807119;78;21254;-73
2022/04/25 07:42:15;;;;;;;7.30;5.15;;;20.50;46.70;;;;;;1807573;78;21532;-73
2022/04/25 07:44:42;;;;;;;9.13;5.03;;;20.50;46.60;;;;;;1807750;79;21077;-73
2022/04/25 07:47:10;;;;;;;6.33;4.95;;;20.60;46.60;;;;;;1808749;78;21105;-72
2022/04/25 07:49:38;;;;;;;6.28;5.00;;;20.60;46.60;;;;;;1838208;78;21078;-73
2022/04/25 07:52:05;;;;;;;8.85;4.67;;;20.60;46.60;;;;;;1838467;78;21195;-73
2022/04/25 07:54:33;;;;;;;8.15;4.25;;;20.60;46.60;;;;;;1838371;78;21093;-73
2022/04/25 07:57:00;;;;;;;6.90;4.85;;;20.60;46.60;;;;;;1838050;78;21132;-73
2022/04/25 07:59:27;;;;;;;7.40;4.75;;;20.60;46.60;;;;;;1838683;77;21102;-72
2022/04/25 08:01:55;;;;;;;11.05;5.15;;;20.60;46.60;;;;;;1858203;77;21102;-73
2022/04/25 08:04:22;;;;;;;5.62;5.03;;;20.60;46.60;;;;;;1852153;77;21150;-73
2022/04/25 08:06:49;;;;;;;6.28;4.45;;;20.60;46.60;;;;;;1801429;79;21174;-74
2022/04/25 08:09:16;;;;;;;6.40;4.78;;;20.60;46.60;;;;;;1834591;78;21186;-73
2022/04/25 08:11:44;;;;;;;6.12;5.10;;;20.60;46.60;;;;;;1801287;79;21136;-72
2022/04/25 08:19:42;;;;;;;6.83;5.00;;;20.60;46.60;;;;;;1807792;79;21207;-73
2022/04/25 08:22:10;;;;;;;6.58;4.70;;;20.60;46.60;;;;;;1807675;79;21164;-73
2022/04/25 08:24:37;;;;;;;5.12;4.60;;;20.60;46.50;;;;;;1808014;78;21097;-72
2022/04/25 08:27:05;;;;;;;8.10;5.17;;;20.60;46.50;;;;;;1830091;78;21487;-72
2022/04/25 08:29:33;;;;;;;8.15;4.42;;;20.70;46.50;;;;;;1837990;77;21206;-73
2022/04/25 08:32:00;;;;;;;7.83;4.33;;;20.60;46.50;;;;;;1863003;76;21598;-72
2022/04/25 08:34:28;;;;;;;7.37;5.00;;;20.60;46.50;;;;;;1874754;76;21099;-72
2022/04/25 08:36:55;;;;;;;5.87;4.65;;;20.60;46.50;;;;;;1874111;76;21568;-72
2022/04/25 08:39:22;;;;;;;8.60;5.05;;;20.70;46.50;;;;;;1874081;76;21130;-72
2022/04/25 08:41:53;;;;;;;8.33;4.70;;;20.60;46.50;;;;;;1875055;75;21645;-72
2022/04/25 08:44:24;;;;;;;10.85;4.92;;;20.60;46.50;;;;;;1910182;75;21039;-72
2022/04/25 08:46:50;;;;;;;9.00;5.30;;;20.60;46.50;;;;;;1909920;75;21512;-73
2022/04/25 08:49:19;;;;;;;6.45;4.90;;;20.60;46.50;;;;;;1880193;75;21177;-73
2022/04/25 08:51:47;;;;;;;5.62;4.92;;;20.60;46.50;;;;;;1876989;76;21103;-73
2022/04/25 08:54:15;;;;;;;5.30;4.80;;;20.60;46.50;;;;;;1877256;76;21222;-73
2022/04/25 08:56:43;;;;;;;6.22;5.22;;;20.60;46.50;;;;;;1877078;76;21110;-72
2022/04/25 08:59:11;;;;;;;5.30;4.80;;;20.60;46.50;;;;;;1880520;75;21126;-73
2022/04/25 09:01:40;;;;;;;5.90;5.30;;;20.60;46.50;;;;;;1893832;75;21118;-73
2022/04/25 09:04:07;;;;;;;5.45;4.90;;;20.70;46.60;;;;;;1909142;75;21673;-72
2022/04/25 09:06:35;;;;;;;6.37;5.00;;;20.70;46.60;;;;;;1909581;75;21074;-72
2022/04/25 09:09:03;;;;;;;6.62;5.00;;;20.70;46.60;;;;;;1909756;75;21152;-72
2022/04/25 09:14:15;;;;;;;5.75;4.60;;;20.70;46.50;;;;;;1903930;75;21770;-72
2022/04/25 09:16:43;;;;;;;5.12;4.62;;;20.70;46.50;;;;;;1880461;75;21091;-73
2022/04/25 09:19:10;;;;;;;6.30;5.62;;;20.70;46.50;;;;;;1890266;75;21168;-72
2022/04/25 09:21:44;;;;;;;6.10;5.50;;;20.70;46.50;;;;;;1878666;75;21830;-72
2022/04/25 09:24:23;;;;;;;6.28;5.37;;;20.70;46.50;;;;;;1886974;75;21107;-72
2022/04/25 09:26:52;;;;;;;5.12;4.62;;;20.70;46.50;;;;;;1877727;75;21085;-72
2022/04/25 09:29:27;;;;;;;8.05;5.15;;;20.70;46.60;;;;;;1870778;76;21143;-72
2022/04/25 09:31:54;;;;;;;5.95;5.00;;;20.70;46.60;;;;;;1894651;75;21147;-73
2022/04/25 09:34:59;;;;;;;5.78;4.78;;;20.70;46.70;;;;;;1910195;75;21039;-72
2022/04/25 09:36:50;;;;;;;6.65;5.20;;;20.70;46.70;;;;;;1905145;75;21040;-72
2022/04/25 09:39:28;;;;;;;7.22;5.15;;;20.70;46.60;;;;;;1909360;75;21555;-72
2022/04/25 09:41:55;;;;;;;6.08;5.08;;;20.70;46.70;;;;;;1909164;75;21095;-72
2022/04/25 09:44:23;;;;;;;5.80;5.08;;;20.70;46.70;;;;;;1855552;75;21092;-72
2022/04/25 09:46:50;;;;;;;5.50;4.80;;;20.70;46.70;;;;;;1846980;77;21179;-72
2022/04/25 09:49:21;;;;;;;5.92;5.33;;;20.70;46.70;;;;;;1846787;77;21077;-73
2022/04/25 09:52:04;;;;;;;6.22;5.33;;;20.70;46.70;;;;;;1846777;77;21123;-72
2022/04/25 09:54:32;;;;;;;6.62;5.22;;;20.80;46.70;;;;;;1846915;77;21833;-73
2022/04/25 09:56:59;;;;;;;6.53;4.72;;;20.80;46.70;;;;;;1846980;77;21186;-72
2022/04/25 09:59:26;;;;;;;5.47;4.85;;;20.80;47.00;;;;;;1846982;77;21391;-73
2022/04/25 10:02:04;;;;;;;5.80;5.22;;;20.80;46.60;;;;;;1827565;77;21238;-72
2022/04/25 10:04:36;;;;;;;5.55;4.97;;;20.80;46.60;;;;;;1816283;79;21124;-72
2022/04/25 10:07:05;;;;;;;6.42;5.15;;;20.80;46.60;;;;;;1816176;79;21127;-72
2022/04/25 10:09:34;;;;;;;5.53;4.92;;;20.80;46.60;;;;;;1826143;75;21134;-73
2022/04/25 10:12:03;;;;;;;5.45;4.92;;;20.80;46.70;;;;;;1891735;75;21176;-73
2022/04/25 10:14:30;;;;;;;5.33;4.42;;;20.80;46.80;;;;;;1893587;75;21055;-73
2022/04/25 10:16:58;;;;;;;5.65;5.05;;;20.80;46.70;;;;;;1870652;75;21151;-73
2022/04/25 10:19:26;;;;;;;5.83;4.80;;;20.80;46.70;;;;;;1845549;75;21043;-73
2022/04/25 10:21:54;;;;;;;5.65;5.08;;;20.80;46.70;;;;;;1844325;77;21180;-73
2022/04/25 10:24:22;;;;;;;6.08;5.47;;;20.80;46.70;;;;;;1842943;77;21108;-73
2022/04/25 10:26:50;;;;;;;6.87;5.03;;;20.80;46.70;;;;;;1830570;77;21513;-73
2022/04/25 10:29:29;;;;;;;5.25;4.75;;;20.80;47.30;;;;;;1837964;77;21097;-72
2022/04/25 10:31:59;;;;;;;7.50;4.83;;;20.80;46.80;;;;;;1858810;75;21147;-73
2022/04/25 10:34:51;;;;;;;4.92;4.42;;;20.80;46.80;;;;;;1839179;75;21190;-73
2022/04/25 10:37:34;;;;;;;7.30;4.90;;;20.80;46.80;;;;;;1840674;75;21171;-72
2022/04/25 10:40:04;;;;;;;5.75;4.92;;;20.80;46.70;;;;;;1821747;77;21424;-72
2022/04/25 10:45:17;;;;;;;5.80;5.10;;;20.80;46.70;;;;;;1824401;77;21745;-72
2022/04/25 10:48:00;;;;;;;7.72;4.97;;;20.80;46.80;;;;;;1876047;75;21100;-72
2022/04/25 10:50:25;;;;;;;5.92;4.83;;;20.80;46.70;;;;;;1832231;76;21097;-72
2022/04/25 10:52:56;;;;;;;5.00;4.55;;;20.80;46.80;;;;;;1819341;77;21116;-73
2022/04/25 10:55:35;;;;;;;5.75;4.87;;;20.80;46.70;;;;;;1838890;77;21104;-73
2022/04/25 10:58:08;;;;;;;6.17;5.17;;;20.80;46.70;;;;;;1823157;76;21523;-72
2022/04/25 11:00:44;;;;;;;5.40;4.90;;;20.80;46.70;;;;;;1847304;75;21180;-72
2022/04/25 11:03:16;;;;;;;6.10;4.90;;;20.80;46.70;;;;;;1844403;77;21096;-72
2022/04/25 11:05:44;;;;;;;5.70;4.78;;;20.80;46.70;;;;;;1844499;78;21149;-72
2022/04/25 11:08:21;;;;;;;5.55;4.95;;;20.80;46.70;;;;;;1844145;77;21114;-72
2022/04/25 11:11:00;;;;;;;5.35;4.47;;;20.80;46.70;;;;;;1842335;77;21136;-72
2022/04/25 11:13:31;;;;;;;5.08;4.58;;;20.80;46.70;;;;;;1846427;76;21518;-72
2022/04/25 11:16:01;;;;;;;6.87;5.00;;;20.80;46.70;;;;;;1845690;77;21100;-72
2022/04/25 11:18:41;;;;;;;5.20;4.70;;;20.80;46.70;;;;;;1846718;75;21652;-72
2022/04/25 11:21:05;;;;;;;6.30;5.10;;;20.80;46.70;;;;;;1822433;77;21137;-72
2022/04/25 11:23:34;;;;;;;5.25;4.75;;;20.80;46.70;;;;;;1842365;77;21094;-73
2022/04/25 11:26:01;;;;;;;6.90;5.45;;;20.80;46.70;;;;;;1829528;78;21085;-72
2022/04/25 11:28:29;;;;;;;5.67;4.75;;;20.80;46.70;;;;;;1834753;78;21172;-73
2022/04/25 11:31:17;;;;;;;4.95;4.35;;;20.80;46.70;;;;;;1834461;78;21054;-73
2022/04/25 11:33:46;;;;;;;6.22;4.53;;;20.80;46.70;;;;;;1834734;78;21090;-72
2022/04/25 11:36:13;;;;;;;5.28;4.78;;;20.80;46.70;;;;;;1834089;78;21082;-72
2022/04/25 11:41:29;;;;;;;5.75;4.72;;;20.80;46.70;;;;;;1834642;78;21152;-73
2022/04/25 11:43:57;;;;;;;4.70;4.30;;;20.80;46.60;;;;;;1832161;78;21169;-72
2022/04/25 11:46:27;;;;;;;5.65;4.87;;;20.80;46.60;;;;;;1823498;78;21590;-72
2022/04/25 11:48:54;;;;;;;5.22;4.72;;;20.80;46.60;;;;;;1822203;78;21559;-72
2022/04/25 11:51:33;;;;;;;5.03;4.55;;;20.80;46.60;;;;;;1823432;78;21082;-73
2022/04/25 11:54:04;;;;;;;5.37;4.55;;;20.80;46.70;;;;;;1823053;78;21072;-72
2022/04/25 11:56:32;;;;;;;5.08;4.50;;;20.80;46.70;;;;;;1823290;78;21047;-72
2022/04/25 11:59:00;;;;;;;4.90;4.40;;;20.80;46.70;;;;;;1823116;78;21129;-72
2022/04/25 12:01:35;;;;;;;5.92;4.83;;;20.80;46.70;;;;;;1809759;79;21127;-72
2022/04/25 12:04:17;;;;;;;5.08;4.58;;;20.80;46.70;;;;;;1793896;80;21176;-72
2022/04/25 12:06:56;;;;;;;4.58;4.17;;;20.80;46.80;;;;;;1793962;80;21090;-72
2022/04/25 12:17:47;;;;;;;4.75;4.05;;;20.80;46.70;;;;;;1792965;79;21144;-72
2022/04/25 12:20:16;;;;;;;5.30;4.80;;;20.80;46.70;;;;;;1793419;79;21652;-73
2022/04/25 12:22:56;;;;;;;4.78;4.15;;;20.80;46.70;;;;;;1793707;79;21109;-73
2022/04/25 12:25:26;;;;;;;5.60;4.97;;;20.80;46.70;;;;;;1792741;79;21114;-72
2022/04/25 12:28:04;;;;;;;4.65;4.10;;;20.80;46.70;;;;;;1792919;79;21125;-73
2022/04/25 12:30:33;;;;;;;5.62;4.47;;;20.80;46.70;;;;;;1795134;79;21120;-72
2022/04/25 12:33:12;;;;;;;4.85;4.33;;;20.90;46.70;;;;;;1801309;79;21231;-73
2022/04/25 12:35:39;;;;;;;4.75;4.28;;;20.80;46.60;;;;;;1821740;78;21587;-73
2022/04/25 12:38:07;;;;;;;4.47;4.08;;;20.80;46.60;;;;;;1821893;79;21067;-72
2022/04/25 12:40:36;;;;;;;4.50;4.10;;;20.80;46.60;;;;;;1821579;78;21149;-72
2022/04/25 12:43:03;;;;;;;4.50;4.10;;;20.80;46.60;;;;;;1820203;78;21588;-72
2022/04/25 12:45:34;;;;;;;5.03;4.53;;;20.80;46.60;;;;;;1821887;78;21553;-71
2022/04/25 12:48:01;;;;;;;4.87;4.37;;;20.80;46.60;;;;;;1810600;78;21112;-71
2022/04/25 12:50:45;;;;;;;5.53;4.40;;;20.80;46.60;;;;;;1804695;79;21136;-73
2022/04/25 12:53:13;;;;;;;5.75;3.95;;;20.80;46.70;;;;;;1804622;79;21616;-72
2022/04/25 12:55:49;;;;;;;5.08;4.50;;;20.80;46.60;;;;;;1804268;79;21518;-72
2022/04/25 12:58:16;;;;;;;5.33;4.58;;;20.80;46.60;;;;;;1803882;79;21569;-72
2022/04/25 13:00:44;;;;;;;4.85;4.28;;;20.80;46.60;;;;;;1841628;78;21168;-73
2022/04/25 13:03:12;;;;;;;4.92;4.42;;;20.80;46.60;;;;;;1846622;78;21159;-72
2022/04/25 13:05:40;;;;;;;4.45;4.05;;;20.80;46.60;;;;;;1846406;76;21129;-72
2022/04/25 13:08:07;;;;;;;4.60;4.17;;;20.90;46.60;;;;;;1868680;76;21059;-72
2022/04/25 13:10:34;;;;;;;5.30;3.70;;;20.90;46.60;;;;;;1876227;76;21141;-72
2022/04/25 13:13:02;;;;;;;4.58;4.17;;;20.90;46.60;;;;;;1875839;76;21070;-72
2022/04/25 13:15:29;;;;;;;4.42;4.03;;;20.90;46.60;;;;;;1876422;76;21031;-73
2022/04/25 13:17:56;;;;;;;4.83;4.10;;;20.90;46.70;;;;;;1865976;76;21078;-72
2022/04/25 13:20:28;;;;;;;4.17;3.77;;;20.90;46.70;;;;;;1846469;77;21566;-72
2022/04/25 13:22:54;;;;;;;6.20;4.05;;;20.90;46.70;;;;;;1846212;77;21680;-72
2022/04/25 13:25:23;;;;;;;4.55;3.98;;;20.90;46.70;;;;;;1846175;76;21203;-73
2022/04/25 13:27:51;;;;;;;4.72;4.22;;;20.90;46.70;;;;;;1845944;77;21089;-72
2022/04/25 13:30:19;;;;;;;4.65;4.25;;;20.90;46.80;;;;;;1846487;77;21130;-72
2022/04/25 13:32:47;;;;;;;5.08;4.58;;;20.90;46.80;;;;;;1841478;77;21135;-72
2022/04/25 13:35:15;;;;;;;4.75;4.12;;;20.90;46.80;;;;;;1804413;79;21202;-72